Eborense — CSMP — position and weather

sailwx.info

Track history (hours):
 
Tides and Currents Weather Stations Pressure Air Temp Water Temp Dewpoint Dewpoint Depression Visibility Wind Speed Wind Dir Waves Ship Positions

Eborense

Last reported at 2014-May-27 13:06 UTC. Time now 2014-Sep-22 22:14 UTC.
Position N 38°38' W 009°07'.
Warning: this ship's position is months out of date.

Length 49 m; draft 1.2 m.

Type: Passenger vessel. MMSI: 263701750.

Date/timePositionNaut miles runAvg speedWind from/ knotsBaromVisibWave heightAir tempDewpointWater temp
2014-May-27 13:06N 38°38' W 009°07'0 0.6
2014-May-27 13:04N 38°38' W 009°07'  
2014-May-23 11:21N 38°38' W 009°07'0 0.1
2014-May-23 10:33N 38°38' W 009°07'0 0.0
2014-May-23 09:33N 38°38' W 009°07'0 0.1
2014-May-23 08:33N 38°38' W 009°07'0 0.0
2014-May-23 07:33N 38°38' W 009°07'0 0.0
2014-May-22 14:25N 38°38' W 009°07'0 0.0
2014-May-22 13:33N 38°38' W 009°07'0 0.0
2014-May-22 12:33N 38°38' W 009°07'0 0.1
2014-May-22 11:33N 38°38' W 009°07'0 0.1
2014-May-22 10:33N 38°38' W 009°07'0 0.0
2014-May-22 09:33N 38°38' W 009°07'0 0.0
2014-May-22 08:33N 38°38' W 009°07'0 0.0
2014-May-22 07:33N 38°38' W 009°07'0 0.0
2014-May-21 07:26N 38°38' W 009°07'0 0.0
2014-May-20 17:34N 38°38' W 009°07'0 0.0
2014-May-20 16:34N 38°38' W 009°07'0 0.1
2014-May-20 15:34N 38°38' W 009°07'0 0.0
2014-May-20 14:34N 38°38' W 009°07'0 0.1
2014-May-20 13:33N 38°38' W 009°07'0 0.0
2014-May-20 12:34N 38°38' W 009°07'0 0.0
2014-May-20 11:34N 38°38' W 009°07'0 0.0
2014-May-20 10:34N 38°38' W 009°07'0 0.0
2014-May-20 09:34N 38°38' W 009°07'0 0.0
2014-May-20 08:33N 38°38' W 009°07'0 0.0
2014-May-19 15:33N 38°38' W 009°07'3 3.0
2014-May-19 14:33N 38°41' W 009°09'0 0.1
2014-May-19 13:33N 38°41' W 009°09'0 0.0
2014-May-19 10:33N 38°41' W 009°09'4 4.1
2014-May-19 09:33N 38°41' W 009°14'0 0.4
2014-May-19 08:33N 38°41' W 009°13'0 0.4
2014-May-19 07:33N 38°40' W 009°14'4 3.8
2014-May-19 06:33N 38°41' W 009°09'0 0.0
2014-May-18 09:24N 38°41' W 009°09'0 0.0
2014-May-18 08:33N 38°41' W 009°09'0 0.0
2014-May-18 07:33N 38°41' W 009°09'  
Track history (hours):
 
Tides and Currents Weather Stations Pressure Air Temp Water Temp Dewpoint Dewpoint Depression Visibility Wind Speed Wind Dir Waves Ship Positions

Eborense

Last reported at 2014-May-27 13:06 UTC. Time now 2014-Sep-22 22:14 UTC.
Position N 38°38' W 009°07'.
Warning: this ship's position is months out of date.

Length 49 m; draft 1.2 m.

Type: Passenger vessel. MMSI: 263701750.

Date/timePositionNaut miles runAvg speedWind from/ knotsBaromVisibWave heightAir tempDewpointWater temp
2014-May-27 13:06N 38°38' W 009°07'0 0.6
2014-May-27 13:04N 38°38' W 009°07'  
2014-May-23 11:21N 38°38' W 009°07'0 0.1
2014-May-23 10:33N 38°38' W 009°07'0 0.0
2014-May-23 09:33N 38°38' W 009°07'0 0.1
2014-May-23 08:33N 38°38' W 009°07'0 0.0
2014-May-23 07:33N 38°38' W 009°07'0 0.0
2014-May-22 14:25N 38°38' W 009°07'0 0.0
2014-May-22 13:33N 38°38' W 009°07'0 0.0
2014-May-22 12:33N 38°38' W 009°07'0 0.1
2014-May-22 11:33N 38°38' W 009°07'0 0.1
2014-May-22 10:33N 38°38' W 009°07'0 0.0
2014-May-22 09:33N 38°38' W 009°07'0 0.0
2014-May-22 08:33N 38°38' W 009°07'0 0.0
2014-May-22 07:33N 38°38' W 009°07'0 0.0
2014-May-21 07:26N 38°38' W 009°07'0 0.0
2014-May-20 17:34N 38°38' W 009°07'0 0.0
2014-May-20 16:34N 38°38' W 009°07'0 0.1
2014-May-20 15:34N 38°38' W 009°07'0 0.0
2014-May-20 14:34N 38°38' W 009°07'0 0.1
2014-May-20 13:33N 38°38' W 009°07'0 0.0
2014-May-20 12:34N 38°38' W 009°07'0 0.0
2014-May-20 11:34N 38°38' W 009°07'0 0.0
2014-May-20 10:34N 38°38' W 009°07'0 0.0
2014-May-20 09:34N 38°38' W 009°07'0 0.0
2014-May-20 08:33N 38°38' W 009°07'0 0.0
2014-May-19 15:33N 38°38' W 009°07'3 3.0
2014-May-19 14:33N 38°41' W 009°09'0 0.1
2014-May-19 13:33N 38°41' W 009°09'0 0.0
2014-May-19 10:33N 38°41' W 009°09'4 4.1
2014-May-19 09:33N 38°41' W 009°14'0 0.4
2014-May-19 08:33N 38°41' W 009°13'0 0.4
2014-May-19 07:33N 38°40' W 009°14'4 3.8
2014-May-19 06:33N 38°41' W 009°09'0 0.0
2014-May-18 09:24N 38°41' W 009°09'0 0.0
2014-May-18 08:33N 38°41' W 009°09'0 0.0
2014-May-18 07:33N 38°41' W 009°09'  

Dump ship's entire track history